Olympic National Park, WA

10:42 AM PST on February 10, 2016 (GMT -0800)
Lake Dawn | | Change Station
CLOSE
Current Station
Personal Weather Station
Location: Port Angeles, WA
Elevation: 1864 ft
Nearby Weather Stations

Elev 1864 ft 48.04 °N, 123.43 °W | Updated 12 minutes ago

Rain
Rain
50.0 °F
Feels Like 49 °F
N
3.8
Wind Variable Wind from WSW
Gusts 6.0 mph

Today
High -- | Low -- °F
--% Chance of Precip.
Yesterday
High -- | Low -- °F
Precip. -- in
Pressure 30.14 in
Visibility 7.0 miles
Clouds Few 3700 ft
Scattered Clouds 5000 ft
Mostly Cloudy 7500 ft
Windchill 49 °F
Dew Point 50 °F
Humidity 99%
Rainfall 0.02 in
Snow Depth Not available.
7:29 AM 5:27 PM
Waxing Crescent, 6% visible
METAR KCLM 101753Z AUTO 11003KT 7SM FEW037 SCT050 BKN075 09/08 A3013 RMK AO2 RAE53 SLP204 P0002 60002 T00940078 10094 20050 51023
Pressure 30.14 in
Visibility 7.0 miles
Clouds Few 3700 ft
Scattered Clouds 5000 ft
Mostly Cloudy 7500 ft
Windchill 49 °F
Dew Point 50 °F
Humidity 99%
Rainfall 0.02 in
Snow Depth Not available.
7:29 AM 5:27 PM
Waxing Crescent, 6% visible
METAR KCLM 101753Z AUTO 11003KT 7SM FEW037 SCT050 BKN075 09/08 A3013 RMK AO2 RAE53 SLP204 P0002 60002 T00940078 10094 20050 51023

10-Day Weather Forecast

Almanac

Astronomy

Feb. 10, 2016 Rise Set
Actual Time
Civil Twilight
Nautical Twilight
Astronomical Twilight
Moon
Length of Visible Light
Length of Day
Tomorrow will be .
, % of the Moon is Illuminated

Today's Extremes

State Highs State Lows

Community

WunderPhotos

Upload Photos

1,891,915 photos uploaded!

WunderBlog® & News

Nearby

Air Quality

  Air Quality AQ Index Pollutant
Not available.

Snow Depth

Station Depth Elevation

Earthquake Activity

City Distance Mag. Time & Date
Minimum magnitude displayed is 2.5.

Coastal Water Temperatures

Place Temperature

Stations

Nearby Weather Stations

Station Location Temp. Windchill Dew Point Humidity Wind Precip. Elev Updated Type
                   

Watches & Warnings

There are currently no watches in effect.